createdAt,value
2017-05-30T00:00:59.699Z,63.85
2017-05-30T00:02:08.658Z,64.43
2017-05-30T00:03:18.199Z,64.15
2017-05-30T00:04:27.170Z,64.24
2017-05-30T00:05:36.133Z,64.92
2017-05-30T00:06:45.096Z,65.01
2017-05-30T00:07:54.068Z,64.63
2017-05-30T00:09:03.289Z,64.63
2017-05-30T00:10:12.254Z,64.63
2017-05-30T00:11:21.222Z,64.63
2017-05-30T00:12:30.184Z,65.01
2017-05-30T00:13:39.241Z,65.11
2017-05-30T00:14:48.523Z,64.92
2017-05-30T00:15:57.504Z,65.01
2017-05-30T00:17:06.466Z,64.92
2017-05-30T00:18:15.437Z,64.92
2017-05-30T00:19:24.401Z,65.01
2017-05-30T00:20:33.612Z,64.92
2017-05-30T00:21:42.576Z,65.01
2017-05-30T00:22:51.541Z,65.11
2017-05-30T00:24:00.503Z,65.01
2017-05-30T00:25:09.551Z,65.01
2017-05-30T00:26:18.765Z,65.11
2017-05-30T00:27:27.727Z,65.08
2017-05-30T00:28:36.696Z,64.43
2017-05-30T00:29:45.661Z,64.72
2017-05-30T00:30:54.639Z,64.92
2017-05-30T00:32:03.856Z,65.01
2017-05-30T00:33:12.815Z,64.53
2017-05-30T00:34:21.781Z,64.63
2017-05-30T00:35:30.927Z,64.24
2017-05-30T00:36:39.891Z,64.43
2017-05-30T00:37:49.105Z,64.24
2017-05-30T00:38:58.074Z,64.05
2017-05-30T00:40:07.047Z,64.34
2017-05-30T00:41:16.014Z,64.24
2017-05-30T00:42:25.063Z,64.05
2017-05-30T00:43:34.284Z,63.85
2017-05-30T00:44:43.260Z,63.95
2017-05-30T00:45:52.224Z,63.85
2017-05-30T00:47:01.516Z,64.05
2017-05-30T00:48:10.482Z,64.15
2017-05-30T00:49:19.704Z,64.15
2017-05-30T00:50:28.670Z,63.85
2017-05-30T00:51:37.721Z,63.67
2017-05-30T00:52:46.683Z,63.67
2017-05-30T00:53:55.763Z,63.09
2017-05-30T00:55:04.983Z,63.28
2017-05-30T00:56:13.947Z,63.57
2017-05-30T00:57:22.911Z,63.37
2017-05-30T00:58:32.046Z,63.37
2017-05-30T00:59:41.022Z,63.37
2017-05-30T01:00:50.243Z,63.37
2017-05-30T01:01:59.241Z,63.67
2017-05-30T01:03:08.252Z,63.67
2017-05-30T01:04:17.356Z,64.34
2017-05-30T01:05:26.515Z,64.05
2017-05-30T01:06:36.094Z,63.85
2017-05-30T01:07:45.219Z,64.53
2017-05-30T01:08:54.291Z,65.01
2017-05-30T01:10:03.389Z,64.43
2017-05-30T01:11:12.474Z,65.2
2017-05-30T01:12:21.731Z,64.89
2017-05-30T01:13:30.702Z,65.17
2017-05-30T01:14:39.673Z,65.59
2017-05-30T01:15:48.774Z,65.66
2017-05-30T01:16:58.012Z,65.47
2017-05-30T01:18:07.316Z,65.47
2017-05-30T01:19:16.289Z,66.04
2017-05-30T01:20:25.414Z,66.04
2017-05-30T01:21:34.383Z,65.85
2017-05-30T01:22:43.347Z,65.95
2017-05-30T01:23:52.560Z,66.14
2017-05-30T01:25:01.529Z,66.43
2017-05-30T01:26:10.489Z,66.52
2017-05-30T01:27:19.459Z,67
2017-05-30T01:28:28.747Z,66.52
2017-05-30T01:29:37.965Z,66.62
2017-05-30T01:30:46.935Z,66.82
2017-05-30T01:31:56.237Z,67.1
2017-05-30T01:33:05.198Z,67.1
2017-05-30T01:34:15.311Z,67.4
2017-05-30T01:35:24.539Z,67.4
2017-05-30T01:36:34.329Z,67.3
2017-05-30T01:37:44.002Z,67.3
2017-05-30T01:38:52.975Z,67
2017-05-30T01:40:02.049Z,67.58
2017-05-30T01:41:13.222Z,67.4
2017-05-30T01:42:23.429Z,67.3
2017-05-30T01:43:33.276Z,67.49
2017-05-30T01:44:42.485Z,67.4
2017-05-30T01:45:51.765Z,67.3
2017-05-30T01:47:02.382Z,67.36
2017-05-30T01:48:11.770Z,67.46
2017-05-30T01:49:20.731Z,67.26
2017-05-30T01:50:29.698Z,67.4
2017-05-30T01:51:38.859Z,67.49
2017-05-30T01:52:48.714Z,67.3
2017-05-30T01:54:00.141Z,67.58
2017-05-30T01:55:09.820Z,67.36
2017-05-30T01:56:18.780Z,67.68
2017-05-30T01:57:28.214Z,67.49
2017-05-30T01:58:38.915Z,67.36
2017-05-30T01:59:47.908Z,67.49
2017-05-30T02:00:56.910Z,67
2017-05-30T02:02:05.872Z,66.72
2017-05-30T02:03:15.781Z,67.36
2017-05-30T02:04:25.910Z,67.4
2017-05-30T02:05:35.270Z,66.88
2017-05-30T02:06:45.400Z,66.52
2017-05-30T02:07:54.763Z,66.62
2017-05-30T02:09:06.307Z,66.82
2017-05-30T02:10:17.131Z,66.43
2017-05-30T02:11:26.101Z,66.43
2017-05-30T02:12:35.066Z,66.82
2017-05-30T02:13:44.040Z,66.72
2017-05-30T02:14:53.118Z,66.33
2017-05-30T02:16:02.595Z,66.04
2017-05-30T02:17:11.559Z,66.52
2017-05-30T02:18:21.511Z,65.95
2017-05-30T02:19:30.779Z,66.04
2017-05-30T02:20:40.586Z,66.24
2017-05-30T02:21:50.854Z,66.04
2017-05-30T02:23:01.939Z,66.04
2017-05-30T02:24:11.963Z,66.14
2017-05-30T02:25:20.930Z,66.04
2017-05-30T02:26:29.890Z,65.56
2017-05-30T02:27:39.119Z,65.37
2017-05-30T02:28:48.090Z,65.56
2017-05-30T02:29:57.157Z,65.56
2017-05-30T02:31:06.129Z,65.37
2017-05-30T02:32:15.089Z,65.75
2017-05-30T02:33:24.302Z,65.37
2017-05-30T02:34:33.597Z,65.75
2017-05-30T02:35:42.562Z,65.66
2017-05-30T02:36:51.524Z,66.14
2017-05-30T02:38:00.489Z,65.66
2017-05-30T02:39:09.707Z,65.75
2017-05-30T02:40:18.667Z,65.75
2017-05-30T02:41:27.632Z,65.37
2017-05-30T02:42:36.622Z,65.37
2017-05-30T02:43:45.588Z,65.85
2017-05-30T02:44:54.805Z,66.04
2017-05-30T02:46:03.768Z,66.01
2017-05-30T02:47:12.732Z,65.95
2017-05-30T02:48:21.696Z,66.04
2017-05-30T02:49:30.664Z,66.04
2017-05-30T02:50:39.876Z,65.91
2017-05-30T02:51:48.842Z,66.01
2017-05-30T02:52:57.812Z,66.14
2017-05-30T02:54:06.775Z,66.24
2017-05-30T02:55:15.737Z,66.14
2017-05-30T02:56:24.956Z,65.95
2017-05-30T02:57:33.920Z,66.04
2017-05-30T02:58:42.889Z,66.01
2017-05-30T02:59:52.184Z,65.75
2017-05-30T03:01:01.156Z,65.66
2017-05-30T03:02:10.373Z,65.56
2017-05-30T03:03:19.339Z,65.37
2017-05-30T03:04:28.306Z,65.37
2017-05-30T03:05:37.274Z,65.75
2017-05-30T03:06:46.323Z,65.75
2017-05-30T03:07:55.634Z,65.66
2017-05-30T03:09:04.626Z,65.47
2017-05-30T03:10:13.590Z,65.56
2017-05-30T03:11:22.559Z,65.56
2017-05-30T03:12:31.528Z,65.56
2017-05-30T03:13:40.741Z,65.75
2017-05-30T03:14:49.705Z,65.66
2017-05-30T03:15:58.670Z,65.17
2017-05-30T03:17:07.628Z,65.47
2017-05-30T03:18:16.592Z,65.56
2017-05-30T03:19:25.807Z,65.08
2017-05-30T03:20:34.776Z,65.47
2017-05-30T03:21:43.742Z,65.66
2017-05-30T03:22:52.705Z,65.66
2017-05-30T03:24:01.669Z,65.85
2017-05-30T03:25:11.028Z,65.66
2017-05-30T03:26:19.992Z,65.53
2017-05-30T03:27:28.955Z,65.37
2017-05-30T03:28:37.914Z,65.75
2017-05-30T03:29:46.890Z,65.95
2017-05-30T03:30:56.106Z,65.95
2017-05-30T03:32:05.074Z,66.11
2017-05-30T03:33:14.040Z,66.11
2017-05-30T03:34:23.032Z,66.01
2017-05-30T03:35:31.999Z,66.59
2017-05-30T03:36:41.213Z,66.33
2017-05-30T03:37:50.505Z,66.3
2017-05-30T03:38:59.471Z,66.2
2017-05-30T03:40:08.514Z,66.11
2017-05-30T03:41:17.482Z,66.3
2017-05-30T03:42:26.692Z,66.3
2017-05-30T03:43:35.654Z,66.3
2017-05-30T03:44:44.623Z,66.3
2017-05-30T03:45:53.592Z,66.2
2017-05-30T03:47:02.554Z,66.3
2017-05-30T03:48:11.765Z,66.43
2017-05-30T03:49:20.732Z,66.3
2017-05-30T03:50:29.697Z,66.11
2017-05-30T03:51:38.658Z,66.43
2017-05-30T03:52:47.629Z,66.33
2017-05-30T03:53:56.847Z,65.91
2017-05-30T03:55:06.146Z,66.3
2017-05-30T03:56:15.111Z,66.11
2017-05-30T03:57:24.078Z,66.3
2017-05-30T03:58:33.039Z,66.59
2017-05-30T03:59:42.261Z,66.69
2017-05-30T04:00:51.226Z,66.49
2017-05-30T04:02:00.194Z,67.26
2017-05-30T04:03:09.246Z,67.36
2017-05-30T04:04:18.211Z,67.84
2017-05-30T04:05:27.430Z,68.32
2017-05-30T04:06:36.393Z,68.42
2017-05-30T04:07:45.361Z,68.71
2017-05-30T04:08:54.657Z,69.09
2017-05-30T04:10:03.628Z,69.38
2017-05-30T04:11:12.845Z,69.29
2017-05-30T04:12:21.808Z,69.96
2017-05-30T04:13:30.830Z,69.96
2017-05-30T04:14:39.800Z,69.67
2017-05-30T04:15:48.770Z,69.67
2017-05-30T04:16:57.985Z,69.77
2017-05-30T04:18:07.002Z,69.67
2017-05-30T04:19:15.963Z,69.77
2017-05-30T04:20:24.926Z,69.67
2017-05-30T04:21:33.893Z,69.87
2017-05-30T04:22:43.191Z,69.48
2017-05-30T04:23:52.151Z,69.67
2017-05-30T04:25:01.119Z,69.67
2017-05-30T04:26:10.079Z,69.57
2017-05-30T04:27:19.045Z,69.96
2017-05-30T04:28:28.307Z,69.67
2017-05-30T04:29:37.283Z,69.67
2017-05-30T04:30:46.247Z,69.87
2017-05-30T04:31:55.301Z,69.19
2017-05-30T04:33:04.260Z,69.48
2017-05-30T04:34:13.471Z,69.38
2017-05-30T04:35:22.523Z,69.32
2017-05-30T04:36:31.492Z,69.38
2017-05-30T04:37:40.461Z,69.23
2017-05-30T04:38:49.426Z,69.09
2017-05-30T04:39:58.638Z,69.09
2017-05-30T04:41:07.612Z,68.93
2017-05-30T04:42:16.892Z,68.93
2017-05-30T04:43:26.179Z,68.93
2017-05-30T04:44:35.288Z,69.23
2017-05-30T04:45:44.559Z,69.23
2017-05-30T04:46:53.606Z,68.55
2017-05-30T04:48:02.568Z,68.45
2017-05-30T04:49:11.537Z,68.65
2017-05-30T04:50:20.508Z,68.55
2017-05-30T04:51:29.721Z,68.35
2017-05-30T04:52:38.697Z,68.35
2017-05-30T04:53:47.668Z,68.07
2017-05-30T04:54:56.631Z,68.26
2017-05-30T04:56:05.592Z,68.35
2017-05-30T04:57:14.804Z,67.78
2017-05-30T04:58:23.762Z,67.88
2017-05-30T04:59:32.729Z,67.88
2017-05-30T05:00:41.695Z,67.49
2017-05-30T05:01:50.745Z,67.49
2017-05-30T05:02:59.962Z,67.1
2017-05-30T05:04:08.929Z,67.2
2017-05-30T05:05:17.909Z,67.3
2017-05-30T05:06:26.866Z,67.3
2017-05-30T05:07:35.831Z,66.72
2017-05-30T05:08:45.047Z,66.72
2017-05-30T05:09:54.016Z,66.43
2017-05-30T05:11:02.983Z,66.72
2017-05-30T05:12:11.948Z,66.94
2017-05-30T05:13:20.911Z,66.46
2017-05-30T05:14:30.215Z,66.08
2017-05-30T05:15:39.184Z,65.98
2017-05-30T05:16:48.147Z,66.17
2017-05-30T05:17:57.107Z,66.17
2017-05-30T05:19:06.076Z,65.69
2017-05-30T05:20:15.296Z,65.3
2017-05-30T05:21:24.267Z,65.59
2017-05-30T05:22:33.236Z,65.5
2017-05-30T05:23:42.203Z,65.59
2017-05-30T05:24:51.169Z,65.2
2017-05-30T05:26:00.390Z,65.3
2017-05-30T05:27:09.353Z,64.86
2017-05-30T05:28:18.323Z,65.2
2017-05-30T05:29:27.286Z,64.56
2017-05-30T05:30:36.245Z,64.86
2017-05-30T05:31:45.463Z,64.76
2017-05-30T05:32:54.433Z,64.37
2017-05-30T05:34:03.397Z,63.79
2017-05-30T05:35:12.365Z,64.08
2017-05-30T05:36:21.328Z,64.18
2017-05-30T05:37:30.543Z,64.08
2017-05-30T05:38:39.503Z,64.18
2017-05-30T05:39:48.471Z,64.08
2017-05-30T05:40:57.765Z,63.6
2017-05-30T05:42:06.732Z,63.7
2017-05-30T05:43:15.952Z,63.7
2017-05-30T05:44:24.918Z,63.43
2017-05-30T05:45:33.971Z,63.31
2017-05-30T05:46:43.031Z,63.43
2017-05-30T05:47:51.993Z,63.34
2017-05-30T05:49:01.645Z,62.73
2017-05-30T05:50:10.721Z,63.05
2017-05-30T05:51:19.685Z,62.86
2017-05-30T05:52:28.654Z,62.66
2017-05-30T05:53:37.624Z,62.47
2017-05-30T05:54:46.962Z,62.76
2017-05-30T05:55:56.342Z,62.47
2017-05-30T05:57:05.482Z,62.37
2017-05-30T05:58:14.828Z,62.28
2017-05-30T05:59:23.794Z,62.28
2017-05-30T06:00:33.062Z,61.8
2017-05-30T06:01:42.027Z,61.7
2017-05-30T06:02:50.988Z,61.8
2017-05-30T06:04:00.021Z,61.51
2017-05-30T06:05:08.981Z,61.89
2017-05-30T06:06:18.200Z,61.7
2017-05-30T06:07:27.171Z,61.31
2017-05-30T06:08:36.139Z,61.15
2017-05-30T06:09:45.192Z,61.25
2017-05-30T06:10:54.157Z,61.15
2017-05-30T06:12:03.372Z,61.15
2017-05-30T06:13:12.337Z,61.25
2017-05-30T06:14:21.308Z,61.44
2017-05-30T06:15:30.273Z,60.86
2017-05-30T06:16:39.254Z,61.15
2017-05-30T06:17:48.519Z,61.25
2017-05-30T06:18:57.810Z,60.86
2017-05-30T06:20:06.776Z,60.96
2017-05-30T06:21:15.995Z,61.34
2017-05-30T06:22:28.516Z,60.86
2017-05-30T06:23:37.729Z,60.47
2017-05-30T06:24:46.701Z,60.67
2017-05-30T06:25:55.669Z,60.79
2017-05-30T06:27:04.640Z,60.6
2017-05-30T06:28:13.608Z,60.21
2017-05-30T06:29:22.875Z,60.21
2017-05-30T06:30:31.845Z,60.11
2017-05-30T06:31:40.892Z,59.92
2017-05-30T06:32:49.852Z,60.11
2017-05-30T06:33:58.820Z,60.02
2017-05-30T06:35:08.034Z,60.02
2017-05-30T06:36:17.002Z,59.92
2017-05-30T06:37:25.975Z,59.92
2017-05-30T06:38:34.940Z,60.02
2017-05-30T06:39:43.990Z,60.05
2017-05-30T06:40:53.283Z,60.11
2017-05-30T06:42:02.372Z,59.86
2017-05-30T06:43:11.360Z,59.86
2017-05-30T06:44:20.331Z,59.76
2017-05-30T06:45:29.297Z,59.56
2017-05-30T06:46:39.723Z,59.86
2017-05-30T06:47:53.429Z,58.8
2017-05-30T06:49:02.395Z,59.18
2017-05-30T06:50:11.358Z,59.21
2017-05-30T06:51:20.382Z,58.72
2017-05-30T06:52:29.598Z,58.44
2017-05-30T06:53:38.559Z,58.34
2017-05-30T06:54:47.532Z,58.14
2017-05-30T06:55:56.498Z,58.53
2017-05-30T06:57:05.462Z,58.53
2017-05-30T06:58:14.678Z,58.44
2017-05-30T06:59:23.661Z,58.24
2017-05-30T07:00:32.635Z,57.86
2017-05-30T07:01:41.602Z,57.95
2017-05-30T07:02:50.566Z,57.56
2017-05-30T07:03:59.787Z,57.18
2017-05-30T07:05:08.754Z,57.37
2017-05-30T07:06:17.725Z,57.46
2017-05-30T07:07:26.695Z,57.69
2017-05-30T07:08:35.659Z,57.56
2017-05-30T07:09:44.934Z,57.2
2017-05-30T07:10:53.904Z,56.72
2017-05-30T07:12:02.867Z,56.82
2017-05-30T07:13:11.829Z,57.2
2017-05-30T07:14:20.861Z,56.72
2017-05-30T07:15:30.073Z,56.62
2017-05-30T07:16:39.041Z,56.72
2017-05-30T07:17:48.012Z,56.43
2017-05-30T07:18:56.980Z,56.14
2017-05-30T07:20:06.301Z,56.72
2017-05-30T07:21:15.518Z,56.43
2017-05-30T07:22:24.491Z,56.14
2017-05-30T07:23:33.458Z,56.16
2017-05-30T07:24:42.763Z,55.98
2017-05-30T07:25:51.730Z,56.07
2017-05-30T07:27:01.277Z,56.36
2017-05-30T07:28:10.243Z,55.78
2017-05-30T07:29:19.210Z,55.68
2017-05-30T07:30:28.310Z,55.4
2017-05-30T07:31:37.602Z,55.49
2017-05-30T07:32:46.826Z,55.49
2017-05-30T07:33:55.795Z,55.04
2017-05-30T07:35:04.759Z,55.13
2017-05-30T07:36:13.732Z,54.74
2017-05-30T07:37:22.697Z,55.04
2017-05-30T07:38:31.911Z,54.94
2017-05-30T07:39:40.881Z,54.45
2017-05-30T07:40:49.848Z,54.55
2017-05-30T07:41:58.818Z,54.55
2017-05-30T07:43:07.783Z,54.84
2017-05-30T07:44:17.000Z,55.04
2017-05-30T07:45:25.976Z,54.48
2017-05-30T07:46:34.955Z,55.13
2017-05-30T07:47:43.917Z,54.58
2017-05-30T07:48:52.894Z,54.58
2017-05-30T07:50:02.119Z,54.77
2017-05-30T07:51:11.086Z,54.38
2017-05-30T07:52:20.094Z,54.58
2017-05-30T07:53:29.062Z,54.48
2017-05-30T07:54:38.030Z,54.28
2017-05-30T07:55:47.249Z,54.58
2017-05-30T07:56:56.217Z,54.48
2017-05-30T07:58:05.191Z,53.99
2017-05-30T07:59:14.155Z,53.7
2017-05-30T08:00:23.123Z,53.89
2017-05-30T08:01:32.340Z,53.99
2017-05-30T08:02:41.335Z,53.89
2017-05-30T08:03:50.302Z,53.99
2017-05-30T08:04:59.288Z,54.19
2017-05-30T08:06:08.581Z,54.09
2017-05-30T08:07:17.801Z,53.12
2017-05-30T08:08:26.768Z,53.41
2017-05-30T08:09:35.910Z,53.8
2017-05-30T08:10:44.880Z,53.8
2017-05-30T08:11:53.847Z,53.31
2017-05-30T08:13:03.116Z,53.31
2017-05-30T08:14:12.082Z,53.7
2017-05-30T08:15:21.071Z,53.7
2017-05-30T08:16:30.037Z,53.31
2017-05-30T08:17:39.063Z,53.83
2017-05-30T08:18:48.339Z,53.31
2017-05-30T08:19:57.308Z,53.51
2017-05-30T08:21:06.285Z,53.15
2017-05-30T08:22:15.257Z,53.05
2017-05-30T08:23:24.219Z,53.02
2017-05-30T08:24:33.530Z,52.95
2017-05-30T08:25:42.496Z,52.76
2017-05-30T08:26:51.465Z,52.86
2017-05-30T08:28:00.436Z,52.95
2017-05-30T08:29:09.405Z,52.76
2017-05-30T08:30:18.633Z,52.28
2017-05-30T08:31:27.598Z,52.98
2017-05-30T08:32:36.576Z,52.76
2017-05-30T08:33:45.547Z,52.76
2017-05-30T08:34:54.515Z,52.76
2017-05-30T08:36:03.765Z,52.37
2017-05-30T08:37:13.054Z,52.4
2017-05-30T08:38:22.018Z,52.11
2017-05-30T08:39:30.984Z,52.2
2017-05-30T08:40:39.969Z,52.11
2017-05-30T08:41:49.190Z,51.72
2017-05-30T08:42:58.164Z,51.62
2017-05-30T08:44:07.132Z,52.01
2017-05-30T08:45:16.101Z,51.75
2017-05-30T08:46:25.070Z,51.06
2017-05-30T08:47:34.286Z,50.77
2017-05-30T08:48:43.257Z,50.68
2017-05-30T08:49:52.227Z,50.96
2017-05-30T08:51:01.535Z,50.51
2017-05-30T08:52:10.825Z,50.41
2017-05-30T08:53:20.046Z,50.6
2017-05-30T08:54:29.018Z,49.82
2017-05-30T08:55:37.989Z,49.95
2017-05-30T08:56:46.959Z,49.56
2017-05-30T08:57:55.922Z,49.37
2017-05-30T08:59:05.144Z,49.27
2017-05-30T09:00:14.111Z,49.46
2017-05-30T09:01:23.080Z,49.07
2017-05-30T09:02:32.221Z,49.07
2017-05-30T09:03:41.197Z,49.07
2017-05-30T09:04:50.421Z,48.78
2017-05-30T09:05:59.398Z,48.68
2017-05-30T09:07:08.365Z,48.97
2017-05-30T09:08:17.338Z,48.68
2017-05-30T09:09:26.320Z,48.49
2017-05-30T09:10:35.961Z,48.68
2017-05-30T09:11:44.932Z,48.68
2017-05-30T09:12:53.907Z,48.97
2017-05-30T09:14:02.872Z,48.88
2017-05-30T09:15:11.850Z,49.17
2017-05-30T09:16:21.074Z,48.78
2017-05-30T09:17:30.041Z,49.27
2017-05-30T09:18:39.008Z,48.58
2017-05-30T09:19:48.794Z,48.68
2017-05-30T09:20:58.370Z,48.68
2017-05-30T09:22:07.638Z,48.68
2017-05-30T09:23:16.607Z,49
2017-05-30T09:24:25.572Z,48.61
2017-05-30T09:25:34.873Z,48.71
2017-05-30T09:26:43.888Z,48.61
2017-05-30T09:27:53.111Z,48.41
2017-05-30T09:29:02.085Z,48.22
2017-05-30T09:30:11.055Z,48.22
2017-05-30T09:31:20.018Z,48.03
2017-05-30T09:32:28.993Z,48.15
2017-05-30T09:33:38.536Z,48.32
2017-05-30T09:34:47.781Z,48.41
2017-05-30T09:35:57.395Z,47.76
2017-05-30T09:37:06.967Z,48.25
2017-05-30T09:38:16.267Z,48.61
2017-05-30T09:39:26.023Z,48.22
2017-05-30T09:40:35.762Z,48.22
2017-05-30T09:41:45.208Z,48.44
2017-05-30T09:42:54.586Z,48.83
2017-05-30T09:44:04.198Z,48.63
2017-05-30T09:45:13.851Z,48.25
2017-05-30T09:46:23.298Z,48.54
2017-05-30T09:47:33.968Z,49.41
2017-05-30T09:48:51.648Z,48.93
2017-05-30T09:50:14.324Z,49.61
2017-05-30T09:51:32.280Z,48.54
2017-05-30T09:52:47.853Z,48.61
2017-05-30T09:54:06.819Z,48.61
2017-05-30T09:55:26.119Z,48.71
2017-05-30T09:56:42.313Z,48.63
2017-05-30T09:57:52.887Z,48.25
2017-05-30T09:59:02.806Z,48.63
2017-05-30T10:00:12.274Z,49.02
2017-05-30T10:01:22.089Z,48.93
2017-05-30T10:02:31.833Z,48.73
2017-05-30T10:03:41.628Z,48.63
2017-05-30T10:04:51.051Z,48.27
2017-05-30T10:06:00.290Z,48.27
2017-05-30T10:07:09.811Z,48.54
2017-05-30T10:08:18.776Z,48.73
2017-05-30T10:09:27.742Z,49.32
2017-05-30T10:10:36.715Z,49.8
2017-05-30T10:11:45.681Z,49.8
2017-05-30T10:12:54.911Z,49.71
2017-05-30T10:14:03.879Z,50.36
2017-05-30T10:15:12.844Z,50.07
2017-05-30T10:16:21.804Z,50.65
2017-05-30T10:17:30.769Z,50.85
2017-05-30T10:18:40.046Z,50.56
2017-05-30T10:19:49.017Z,50.26
2017-05-30T10:20:57.981Z,50.56
2017-05-30T10:22:06.943Z,50.34
2017-05-30T10:23:15.914Z,50.73
2017-05-30T10:24:25.131Z,50.92
2017-05-30T10:25:34.096Z,51.01
2017-05-30T10:26:43.064Z,50.82
2017-05-30T10:27:52.031Z,50.92
2017-05-30T10:29:01.005Z,51.01
2017-05-30T10:30:10.226Z,51.01
2017-05-30T10:31:19.192Z,50.82
2017-05-30T10:32:28.172Z,50.92
2017-05-30T10:33:37.146Z,50.82
2017-05-30T10:34:46.110Z,51.01
2017-05-30T10:35:55.324Z,50.53
2017-05-30T10:37:04.292Z,50.63
2017-05-30T10:38:13.256Z,51.11
2017-05-30T10:39:22.220Z,51.21
2017-05-30T10:40:31.195Z,52.37
2017-05-30T10:41:40.410Z,53.25
2017-05-30T10:42:49.437Z,53.16
2017-05-30T10:43:58.404Z,53.35
2017-05-30T10:45:07.363Z,54.58
2017-05-30T10:46:16.334Z,54.58
2017-05-30T10:47:25.546Z,54.2
2017-05-30T10:48:34.517Z,54.68
2017-05-30T10:49:43.485Z,54.58
2017-05-30T10:50:52.459Z,55.17
2017-05-30T10:52:01.424Z,55.07
2017-05-30T10:53:10.643Z,55.94
2017-05-30T10:54:19.603Z,56.4
2017-05-30T10:55:28.570Z,57.18
2017-05-30T10:56:37.534Z,58.54
2017-05-30T10:57:46.504Z,59
2017-05-30T10:58:55.770Z,59.87
2017-05-30T11:00:04.738Z,60.84
2017-05-30T11:01:14.032Z,61.1
2017-05-30T11:02:22.997Z,61.49
2017-05-30T11:03:31.960Z,61.55
2017-05-30T11:04:41.178Z,61.36
2017-05-30T11:05:50.139Z,61.65
2017-05-30T11:06:59.101Z,61.82
2017-05-30T11:08:08.165Z,62.1
2017-05-30T11:09:17.125Z,62.59
2017-05-30T11:10:26.440Z,74.57
2017-05-30T11:11:35.404Z,83.86
2017-05-30T11:12:44.367Z,88.19
2017-05-30T11:13:53.751Z,90.61
2017-05-30T11:15:02.707Z,93.76
2017-05-30T11:16:11.926Z,95.26
2017-05-30T11:17:20.888Z,96.46
2017-05-30T11:18:29.855Z,97.28
2017-05-30T11:19:38.823Z,98.54
2017-05-30T11:20:47.784Z,99.99
2017-05-30T11:21:57.109Z,99.98
2017-05-30T11:23:06.077Z,99.79
2017-05-30T11:24:15.122Z,99.99
2017-05-30T11:25:24.086Z,99.99
2017-05-30T11:26:33.045Z,99.99
2017-05-30T11:27:42.258Z,99.99
2017-05-30T11:28:51.216Z,99.99
2017-05-30T11:30:00.179Z,99.99
2017-05-30T11:31:09.143Z,99.99
2017-05-30T11:32:18.109Z,99.99
2017-05-30T11:33:27.322Z,99.99
2017-05-30T11:34:36.608Z,99.99
2017-05-30T11:35:45.575Z,99.99
2017-05-30T11:36:54.535Z,99.99
2017-05-30T11:38:03.493Z,99.99
2017-05-30T11:39:12.763Z,99.99
2017-05-30T11:40:21.722Z,99.99
2017-05-30T11:41:30.691Z,99.99
2017-05-30T11:42:39.652Z,99.99
2017-05-30T11:43:48.612Z,99.99
2017-05-30T11:44:57.831Z,99.99
2017-05-30T11:46:07.114Z,99.99
2017-05-30T11:47:16.077Z,99.99
2017-05-30T11:48:25.039Z,99.99
2017-05-30T11:49:33.997Z,99.99
2017-05-30T11:50:43.263Z,99.99
2017-05-30T11:51:52.230Z,99.99
2017-05-30T11:53:01.189Z,99.99
2017-05-30T11:54:10.153Z,99.99
2017-05-30T11:55:19.111Z,99.99
2017-05-30T11:56:28.376Z,99.99
2017-05-30T11:57:37.343Z,99.99
2017-05-30T11:58:46.306Z,99.99
2017-05-30T11:59:55.281Z,99.99
2017-05-30T12:01:04.562Z,99.99
2017-05-30T12:02:13.857Z,99.99
2017-05-30T12:03:22.816Z,99.99
2017-05-30T12:04:31.775Z,99.99
2017-05-30T12:05:40.728Z,99.99
2017-05-30T12:06:49.693Z,99.99
2017-05-30T12:07:58.952Z,99.99
2017-05-30T12:09:08.233Z,99.99
2017-05-30T12:10:17.196Z,99.99
2017-05-30T12:11:26.153Z,99.99
2017-05-30T12:12:35.117Z,99.99
2017-05-30T12:13:44.377Z,99.99
2017-05-30T12:14:53.335Z,99.99
2017-05-30T12:16:03.163Z,99.99
2017-05-30T12:17:13.830Z,99.99
2017-05-30T12:18:23.297Z,99.99
2017-05-30T12:19:33.009Z,99.99
2017-05-30T12:20:42.403Z,99.99
2017-05-30T12:21:51.955Z,99.99
2017-05-30T12:23:01.120Z,99.99
2017-05-30T12:24:10.139Z,99.99
2017-05-30T12:25:19.857Z,99.99
2017-05-30T12:26:28.821Z,99.99
2017-05-30T12:27:37.785Z,99.99
2017-05-30T12:28:46.741Z,99.99
2017-05-30T12:29:55.707Z,99.99
2017-05-30T12:31:04.929Z,99.99
2017-05-30T12:32:13.897Z,99.99
2017-05-30T12:33:22.859Z,99.99
2017-05-30T12:34:31.828Z,99.99
2017-05-30T12:35:40.790Z,99.99
2017-05-30T12:36:50.053Z,99.99
2017-05-30T12:37:59.012Z,99.99
2017-05-30T12:39:07.986Z,99.99
2017-05-30T12:40:16.942Z,99.99
2017-05-30T12:41:25.909Z,99.99
2017-05-30T12:42:35.450Z,99.99
2017-05-30T12:43:44.411Z,99.99
2017-05-30T12:44:53.376Z,99.99
2017-05-30T12:46:02.341Z,99.99
2017-05-30T12:47:11.305Z,99.99
2017-05-30T12:48:20.521Z,99.99
2017-05-30T12:49:29.484Z,99.99
2017-05-30T12:50:38.446Z,99.99
2017-05-30T12:51:47.411Z,99.99
2017-05-30T12:52:56.378Z,99.99
2017-05-30T12:54:05.588Z,99.99
2017-05-30T12:55:14.552Z,99.99
2017-05-30T12:56:23.514Z,99.99
2017-05-30T12:57:32.479Z,99.99
2017-05-30T12:58:41.440Z,99.99
2017-05-30T12:59:50.650Z,99.99
2017-05-30T13:00:59.610Z,99.99
2017-05-30T13:02:08.570Z,99.99
2017-05-30T13:03:17.534Z,99.99
2017-05-30T13:04:26.553Z,99.99
2017-05-30T13:05:35.817Z,99.99
2017-05-30T13:06:44.784Z,99.99
2017-05-30T13:07:53.749Z,99.99
2017-05-30T13:09:02.706Z,99.99
2017-05-30T13:10:11.752Z,99.99
2017-05-30T13:11:21.016Z,99.99
2017-05-30T13:12:29.982Z,99.99
2017-05-30T13:13:38.945Z,99.99
2017-05-30T13:14:47.924Z,99.99
2017-05-30T13:15:56.947Z,99.99
2017-05-30T13:17:06.485Z,99.99
2017-05-30T13:18:15.780Z,99.99
2017-05-30T13:19:24.751Z,99.99
2017-05-30T13:20:33.716Z,99.99
2017-05-30T13:21:42.681Z,99.99
2017-05-30T13:22:51.898Z,99.99
2017-05-30T13:24:00.860Z,99.99
2017-05-30T13:25:09.912Z,99.99
2017-05-30T13:26:18.874Z,99.99
2017-05-30T13:27:27.838Z,99.99
2017-05-30T13:28:37.666Z,99.99
2017-05-30T13:29:46.627Z,99.99
2017-05-30T13:30:55.593Z,99.99
2017-05-30T13:32:04.559Z,99.99
2017-05-30T13:33:13.529Z,99.99
2017-05-30T13:34:22.741Z,99.99
2017-05-30T13:35:31.706Z,99.99
2017-05-30T13:36:40.667Z,99.99
2017-05-30T13:37:49.626Z,99.99
2017-05-30T13:38:58.587Z,99.99
2017-05-30T13:40:07.797Z,99.99
2017-05-30T13:41:16.762Z,99.99
2017-05-30T13:42:25.724Z,99.99
2017-05-30T13:43:35.032Z,99.99
2017-05-30T13:44:44.077Z,99.99
2017-05-30T13:45:53.623Z,99.99
2017-05-30T13:47:02.591Z,99.99
2017-05-30T13:48:11.555Z,99.99
2017-05-30T13:49:20.528Z,99.99
2017-05-30T13:50:29.489Z,99.99
2017-05-30T13:51:38.813Z,99.99
2017-05-30T13:52:47.774Z,99.99
2017-05-30T13:53:56.737Z,99.99
2017-05-30T13:55:05.701Z,99.99
2017-05-30T13:56:14.664Z,99.99
2017-05-30T13:57:23.877Z,99.99
2017-05-30T13:58:32.835Z,99.99
2017-05-30T13:59:41.796Z,99.99
2017-05-30T14:00:50.815Z,99.99
2017-05-30T14:01:59.795Z,99.99
2017-05-30T14:03:09.009Z,99.99
2017-05-30T14:04:17.969Z,99.99
2017-05-30T14:05:26.935Z,99.99
2017-05-30T14:06:35.895Z,99.99
2017-05-30T14:07:44.861Z,99.99
2017-05-30T14:08:54.073Z,99.99
2017-05-30T14:10:03.048Z,99.99
2017-05-30T14:11:12.017Z,99.99
2017-05-30T14:12:20.982Z,99.99
2017-05-30T14:13:29.948Z,99.99
2017-05-30T14:14:39.493Z,99.99
2017-05-30T14:15:48.548Z,99.99
2017-05-30T14:16:57.508Z,99.99
2017-05-30T14:18:06.473Z,99.99
2017-05-30T14:19:15.438Z,99.99
2017-05-30T14:20:24.707Z,99.99
2017-05-30T14:21:33.674Z,99.99
2017-05-30T14:22:42.650Z,99.99
2017-05-30T14:23:51.674Z,99.99
2017-05-30T14:25:00.643Z,99.99
2017-05-30T14:26:09.859Z,99.99
2017-05-30T14:27:18.825Z,99.99
2017-05-30T14:28:27.791Z,99.99
2017-05-30T14:29:36.875Z,99.99
2017-05-30T14:30:46.036Z,99.99
2017-05-30T14:31:55.407Z,99.99
2017-05-30T14:33:04.401Z,99.99
2017-05-30T14:34:13.391Z,99.99
2017-05-30T14:35:22.387Z,99.99
2017-05-30T14:36:31.384Z,99.99
2017-05-30T14:37:40.625Z,99.99
2017-05-30T14:38:49.613Z,99.99
2017-05-30T14:39:58.597Z,99.99
2017-05-30T14:41:07.834Z,99.99
2017-05-30T14:42:17.308Z,99.99
2017-05-30T14:43:26.590Z,99.99
2017-05-30T14:44:35.557Z,99.99
2017-05-30T14:45:44.549Z,99.99
2017-05-30T14:46:53.511Z,99.99
2017-05-30T14:48:02.484Z,99.99
2017-05-30T14:49:12.044Z,99.99
2017-05-30T14:50:21.014Z,99.99
2017-05-30T14:51:29.979Z,99.99
2017-05-30T14:52:38.943Z,99.99
2017-05-30T14:53:48.244Z,99.99
2017-05-30T14:54:57.457Z,99.99